This is the latest recevied weather packets stored in our database for station/object KC5AV. If no packets are shown the sender has not sent any weather packets the latest 10 day(s).
| Time | Temp. | Humidity | Pressure | Rain* | Wind** | Luminosity | Snow |
|---|---|---|---|---|---|---|---|
| 1787522536 | 42.22° C | 30% | 1013.7 hPa | 0 mm | - | 401 W/m² | - |
| 1787522236 | 42.22° C | 30% | 1013.5 hPa | 0 mm | - | 415 W/m² | - |
| 1787521931 | 42.22° C | 29% | 1013.9 hPa | 0 mm | - | 462 W/m² | - |
| 1787521624 | 42.22° C | 30% | 1014 hPa | 0 mm | - | 462 W/m² | - |
| 1787521324 | 41.11° C | 32% | 1013.9 hPa | 0 mm | - | 415 W/m² | - |
| 1787521019 | 40.56° C | 32% | 1014.1 hPa | 0 mm | - | 267 W/m² | - |
| 1787520714 | 40° C | 32% | 1014.1 hPa | 0 mm | - | 178 W/m² | - |
| 1787520409 | 40° C | 34% | 1014.2 hPa | 0 mm | - | 134 W/m² | - |
| 1787520106 | 40.56° C | 33% | 1014 hPa | 0 mm | - | 123 W/m² | - |
| 1787519801 | 41.67° C | 31% | 1014.3 hPa | 0 mm | - | 108 W/m² | - |
| 1787519496 | 42.22° C | 31% | 1014.1 hPa | 0 mm | - | 562 W/m² | - |
| 1787519196 | 41.67° C | 31% | 1014.3 hPa | 0 mm | - | 563 W/m² | - |
| 1787518892 | 41.67° C | 30% | 1014.4 hPa | 0 mm | - | 590 W/m² | - |
| 1787518587 | 40.56° C | 33% | 1014.4 hPa | 0 mm | - | 260 W/m² | - |
| 1787518282 | 40.56° C | 32% | 1014.4 hPa | 0 mm | - | 144 W/m² | - |
| 1787517978 | 41.67° C | 32% | 1014.5 hPa | 0 mm | - | 590 W/m² | - |
| 1787517674 | 41.11° C | 34% | 1014.7 hPa | 0 mm | - | 655 W/m² | - |
| 1787517370 | 41.11° C | 32% | 1014.6 hPa | 0 mm | - | 669 W/m² | - |
| 1787517065 | 41.67° C | 33% | 1014.7 hPa | 0 mm | - | 684 W/m² | - |
| 1787516760 | 41.11° C | 33% | 1014.7 hPa | 0 mm | - | 702 W/m² | - |
| 1787516455 | 41.11° C | 32% | 1014.8 hPa | 0 mm | - | 706 W/m² | - |
| 1787516154 | 41.11° C | 33% | 1014.9 hPa | 0 mm | - | 720 W/m² | - |
| 1787515849 | 40.56° C | 33% | 1014.9 hPa | 0 mm | - | 732 W/m² | - |
| 1787515546 | 41.11° C | 36% | 1015 hPa | 0 mm | - | 737 W/m² | - |
| 1787515246 | 41.11° C | 34% | 1015.3 hPa | 0 mm | - | 754 W/m² | - |
* Rain latest hour (hover to see other rain measurements)
** Current wind speed in m/s (hover to see current wind gust speed)